Flight Track Log - Related Links

Times and Time Zones

All times are in EDT time to prevent confusion due to time zone crossing. See the ACA831 flight status page for this flight to view local times or setup timezone preferences in your user account.


Time Position Orientation Groundspeed Altitude Reporting Facility
EDT Latitude Longitude Course Direction KTS MPH feet Rate Location/Type
Wed 06:21:17 AM 46.2320 6.1040 225° Southwest 8 9  Level FlightAware ADS-B
Wed 06:21:55 AM 46.2310 6.1030 215° Southwest 8 9 131 Level FlightAware ADS-B
Wed 06:22:35 AM 46.2300 6.1010 234° Southwest 7 8 141 Level FlightAware ADS-B
Wed 06:23:32 AM 46.2290 6.0990 234° Southwest 8 9 153 Level FlightAware ADS-B
Wed 06:23:52 AM 46.2280 6.0980 215° Southwest 7 8 173 Level FlightAware ADS-B
Wed 06:24:27 AM 46.2270 6.0970 215° Southwest 8 9 182 Level FlightAware ADS-B
Wed 06:24:52 AM 46.2270 6.0960 270° West 9 10 200 Level FlightAware ADS-B
Wed 06:25:33 AM 46.2260 6.0940 234° Southwest 7 8 215 Level FlightAware ADS-B
Wed 06:27:42 AM 46.2260 6.0930 270° West 4 5 245 Level FlightAware ADS-B
Wed 06:29:32 AM 46.2260 6.0920 270° West 4 5 436 Level FlightAware ADS-B
Wed 06:29:48 AM 46.2270 6.0920 360° North 19 22 1,309 Level FlightAware ADS-B
Wed 06:30:27 AM 46.2410 6.1130 46° Northeast 168 193 1,200 2,261 Climbing FlightAware ADS-B
Wed 06:30:57 AM 46.2580 6.1400 48° Northeast 173 199 2,600 2,900 Climbing FlightAware ADS-B
Wed 06:31:27 AM 46.2740 6.1640 46° Northeast 168 193 4,100 2,400 Climbing FlightAware ADS-B
Wed 06:31:52 AM 46.2900 6.1860 44° Northeast 197 227 4,800 2,073 Climbing FlightAware ADS-B
Wed 06:32:22 AM 46.3100 6.2180 48° Northeast 229 264 6,000 2,291 Climbing FlightAware ADS-B
Wed 06:32:47 AM 46.3310 6.2480 45° Northeast 259 298 6,900 2,679 Climbing FlightAware ADS-B
Wed 06:33:18 AM 46.3610 6.2770 34° Northeast 258 297 8,500 3,300 Climbing FlightAware ADS-B
Wed 06:33:27 AM 46.3730 6.2790 North 260 299 9,100 3,409 Climbing FlightAware ADS-B
Wed 06:34:02 AM 46.4150 6.2690 351° North 266 306 11,000 3,360 Climbing FlightAware ADS-B
Wed 06:34:42 AM 46.4660 6.2530 348° North 269 310 13,300 3,150 Climbing FlightAware ADS-B
Wed 06:35:22 AM 46.5170 6.2360 347° North 277 319 15,200 2,100 Climbing FlightAware ADS-B
Wed 06:36:02 AM 46.5730 6.2190 348° North 311 358 16,100 1,465 Climbing FlightAware ADS-B
Wed 06:36:48 AM 46.6330 6.1530 323° Northwest 391 450 17,300 1,705 Climbing FlightAware ADS-B
Wed 06:37:30 AM 46.6680 6.0500 296° West 420 483 18,600 2,195 Climbing FlightAware ADS-B
Wed 06:38:10 AM 46.7020 5.9460 296° West 428 493 20,300 1,714 Climbing FlightAware ADS-B
Wed 06:38:54 AM 46.7410 5.8300 296° West 436 502 21,000 477 Climbing FlightAware ADS-B
Wed 06:39:38 AM 46.7790 5.7150 296° West 434 499 21,000 75 Level FlightAware ADS-B
Wed 06:40:14 AM 46.8120 5.6190 297° West 433 498 21,100 1,429 Climbing FlightAware ADS-B
Wed 06:41:02 AM 46.8530 5.4930 295° West 442 509 23,000 2,250 Climbing FlightAware ADS-B
Wed 06:41:42 AM 46.8900 5.3830 296° West 452 520 24,400 2,024 Climbing FlightAware ADS-B
Wed 06:42:25 AM 46.9290 5.2690 297° West 461 531 25,800 2,214 Climbing FlightAware ADS-B
Wed 06:43:06 AM 46.9670 5.1550 296° West 459 528 27,500 2,530 Climbing FlightAware ADS-B
Wed 06:43:48 AM 47.0080 5.0340 296° West 453 521 29,300 2,415 Climbing FlightAware ADS-B
Wed 06:44:28 AM 47.0440 4.9310 297° West 447 514 30,800 1,976 Climbing FlightAware ADS-B
Wed 06:45:10 AM 47.0980 4.8320 309° West 436 502 32,000 857 Climbing FlightAware ADS-B
Wed 06:45:52 AM 47.1570 4.7400 313° West 433 498 32,000  Level FlightAware ADS-B
Wed 06:46:36 AM 47.2180 4.6540 316° Northwest 432 497 32,000  Level FlightAware ADS-B
Wed 06:47:20 AM 47.2800 4.5710 318° Northwest 436 502 32,000  Level FlightAware ADS-B
Wed 06:48:00 AM 47.3460 4.4810 317° Northwest 437 503 32,000  Level FlightAware ADS-B
Wed 06:48:43 AM 47.4030 4.4040 318° Northwest 438 504 32,000  Level FlightAware ADS-B
Wed 06:49:28 AM 47.4760 4.3040 317° Northwest 438 504 32,000  Level FlightAware ADS-B
Wed 06:50:09 AM 47.5320 4.2270 317° Northwest 439 505 32,000  Level FlightAware ADS-B
Wed 06:50:47 AM 47.5900 4.1460 317° Northwest 438 504 32,000  Level FlightAware ADS-B
Wed 06:51:29 AM 47.6540 4.0580 317° Northwest 438 504 32,000  Level FlightAware ADS-B
Wed 06:52:09 AM 47.7140 3.9760 317° Northwest 437 503 32,000  Level FlightAware ADS-B
Wed 06:52:56 AM 47.7830 3.8800 317° Northwest 437 503 32,000  Level FlightAware ADS-B
Wed 06:53:47 AM 47.8550 3.7790 317° Northwest 435 501 32,000  Level FlightAware ADS-B
Wed 06:54:31 AM 47.9210 3.6870 317° Northwest 433 498 32,000  Level FlightAware ADS-B
Wed 06:55:17 AM 47.9910 3.5900 317° Northwest 431 496 32,000  Level FlightAware ADS-B
Wed 06:55:58 AM 48.0480 3.5090 316° Northwest 430 495 32,000  Level FlightAware ADS-B
Wed 06:56:42 AM 48.1100 3.4210 317° Northwest 429 494 32,000  Level FlightAware ADS-B
Wed 06:57:24 AM 48.1720 3.3330 317° Northwest 428 493 32,000  Level FlightAware ADS-B
Wed 06:58:06 AM 48.2330 3.2470 317° Northwest 427 491 32,000  Level FlightAware ADS-B
Wed 06:58:45 AM 48.2880 3.1690 317° Northwest 427 491 32,000  Level FlightAware ADS-B
Wed 06:59:29 AM 48.3520 3.0780 317° Northwest 426 490 32,000  Level FlightAware ADS-B
Wed 07:00:03 AM 48.3990 3.0060 315° West 428 493 32,000  Level FlightAware ADS-B
Wed 07:00:52 AM 48.4400 2.8790 296° West 435 501 32,000  Level FlightAware ADS-B
Wed 07:01:33 AM 48.4630 2.7620 287° West 434 499 32,000  Level FlightAware ADS-B
Wed 07:02:14 AM 48.4850 2.6480 286° West 433 498 32,000  Level FlightAware ADS-B
Wed 07:02:57 AM 48.5110 2.5140 286° West 434 499 32,000  Level FlightAware ADS-B
Wed 07:03:41 AM 48.5360 2.3820 286° West 434 499 32,000  Level FlightAware ADS-B
Wed 07:04:18 AM 48.5560 2.2760 286° West 433 498 32,000  Level FlightAware ADS-B
Wed 07:05:07 AM 48.5820 2.1380 286° West 433 498 32,000  Level FlightAware ADS-B
Wed 07:06:02 AM 48.6100 1.9900 286° West 433 498 32,000  Level FlightAware ADS-B
Wed 07:06:41 AM 48.6330 1.8600 285° West 434 499 32,000  Level FlightAware ADS-B
Wed 07:07:19 AM 48.6541 1.7481 285° West 470 541 32,000  Level FlightAware UK
Wed 07:07:25 AM 48.6550 1.7430 285° West 433 498 32,000  Level FlightAware ADS-B
Wed 07:08:07 AM 48.6790 1.6140 286° West 432 497 32,000  Level FlightAware ADS-B
Wed 07:08:48 AM 48.7000 1.4950 285° West 432 497 32,000  Level FlightAware ADS-B
Wed 07:09:30 AM 48.7230 1.3680 285° West 431 496 32,000  Level FlightAware ADS-B
Wed 07:09:31 AM 48.7236 1.3644 285° West 472 543 32,000  Level FlightAware UK
Wed 07:10:01 AM 48.7391 1.2772 285° West 470 541 32,000  Level FlightAware UK
Wed 07:10:13 AM 48.7460 1.2440 285° West 430 495 32,000  Level FlightAware ADS-B
Wed 07:10:55 AM 48.7660 1.1270 285° West 430 495 32,000  Level FlightAware ADS-B
Wed 07:11:38 AM 48.7840 1.0270 285° West 429 494 32,000  Level FlightAware ADS-B
Wed 07:12:14 AM 48.8060 0.9050 285° West 429 494 32,000  Level FlightAware ADS-B
Wed 07:12:59 AM 48.8300 0.7620 284° West 430 495 32,000  Level FlightAware ADS-B
Wed 07:13:36 AM 48.8490 0.6511 284° West 470 541 32,000  Level FlightAware UK
Wed 07:13:41 AM 48.8520 0.6380 284° West 429 494 32,000  Level FlightAware ADS-B
Wed 07:14:18 AM 48.8708 0.5328 284° West 472 543 32,000  Level FlightAware UK
Wed 07:14:25 AM 48.8730 0.5150 284° West 429 494 32,000  Level FlightAware ADS-B
Wed 07:15:03 AM 48.8920 0.4020 284° West 429 494 32,000  Level FlightAware ADS-B
Wed 07:15:06 AM 48.8943 0.3928 284° West 472 543 32,000  Level FlightAware UK
Wed 07:15:43 AM 48.9120 0.2870 285° West 429 494 32,000  Level FlightAware ADS-B
Wed 07:16:30 AM 48.9360 0.1460 285° West 429 494 32,000  Level FlightAware ADS-B
Wed 07:17:24 AM 48.9620 -0.0120 284° West 429 494 32,000  Level FlightAware ADS-B
Wed 07:18:05 AM 48.9810 -0.1280 284° West 427 491 32,000  Level FlightAware ADS-B
Wed 07:18:53 AM 49.0040 -0.2690 284° West 428 493 32,000  Level FlightAware ADS-B
Wed 07:19:24 AM 49.0181 -0.3597 284° West 472 543 32,000  Level FlightAware UK
Wed 07:19:30 AM 49.0220 -0.3740 284° West 428 493 32,000  Level FlightAware ADS-B
Wed 07:20:18 AM 49.0444 -0.5179 284° West 472 543 32,000  Level FlightAware UK
Wed 07:20:28 AM 49.0500 -0.5470 284° West 429 494 32,000  Level FlightAware ADS-B
Wed 07:20:59 AM 49.0640 -0.6405 284° West 474 545 32,000  Level FlightAware UK
Wed 07:21:06 AM 49.0670 -0.6560 284° West 429 494 32,000  Level FlightAware ADS-B
Wed 07:21:48 AM 49.0870 -0.7810 284° West 430 495 32,000  Level FlightAware ADS-B
Wed 07:21:53 AM 49.0892 -0.7985 284° West 472 543 32,000  Level FlightAware UK
Wed 07:22:30 AM 49.1070 -0.9060 284° West 430 495 32,000  Level FlightAware ADS-B
Wed 07:23:17 AM 49.1290 -1.0450 284° West 431 496 32,000  Level FlightAware ADS-B
Wed 07:23:58 AM 49.1470 -1.1630 284° West 432 497 32,000  Level FlightAware ADS-B
Wed 07:23:59 AM 49.1471 -1.1693 284° West 474 545 32,000  Level FlightAware UK
Wed 07:24:38 AM 49.1650 -1.2780 284° West 432 497 32,000  Level FlightAware ADS-B
Wed 07:25:23 AM 49.1860 -1.4150 283° West 432 497 32,000  Level FlightAware ADS-B
Wed 07:26:03 AM 49.2040 -1.5350 283° West 433 498 32,000  Level FlightAware ADS-B
Wed 07:26:48 AM 49.2240 -1.6690 283° West 433 498 32,000  Level FlightAware ADS-B
Wed 07:27:28 AM 49.2420 -1.7890 283° West 432 497 32,000  Level FlightAware ADS-B
Wed 07:27:59 AM 49.2557 -1.8808 283° West 474 545 32,000  Level FlightAware UK
Wed 07:28:03 AM 49.2560 -1.8810 283° West 433 498 32,000  Level FlightAware ADS-B
Wed 07:28:52 AM 49.2788 -2.0422 283° West 474 545 32,000  Level FlightAware UK
Wed 07:28:53 AM 49.2780 -2.0330 283° West 434 499 32,000  Level FlightAware ADS-B
Wed 07:29:28 AM 49.2949 -2.1504 283° West 476 548 32,000  Level FlightAware UK
Wed 07:29:33 AM 49.2970 -2.1610 283° West 434 499 32,000  Level FlightAware ADS-B
Wed 07:29:58 AM 49.3080 -2.2350 283° West 435 501 32,000  Level FlightAware ADS-B
Wed 07:30:46 AM 49.3293 -2.3848 283° West 476 548 32,000  Level FlightAware UK
Wed 07:31:22 AM 49.3444 -2.4926 282° West 476 548 32,000  Level FlightAware UK
Wed 07:31:32 AM 49.3410 -2.4670 282° West 436 502 32,000  Level FlightAware ADS-B
Wed 07:32:08 AM 49.3640 -2.6260 283° West 435 501 32,000  Level FlightAware ADS-B
Wed 07:32:58 AM 49.3850 -2.7780 282° West 435 501 32,000  Level FlightAware ADS-B
Wed 07:33:38 AM 49.4010 -2.8920 282° West 436 502 32,000  Level FlightAware ADS-B
Wed 07:34:20 AM 49.4190 -3.0280 282° West 436 502 32,000  Level FlightAware ADS-B
Wed 07:35:04 AM 49.4370 -3.1590 282° West 437 503 32,000  Level FlightAware ADS-B
Wed 07:35:40 AM 49.4520 -3.2690 282° West 438 504 32,000  Level FlightAware ADS-B
Wed 07:36:28 AM 49.4720 -3.4130 282° West 439 505 32,000  Level FlightAware ADS-B
Wed 07:37:08 AM 49.4880 -3.5380 282° West 440 506 32,000  Level FlightAware ADS-B
Wed 07:37:09 AM 49.4888 -3.5440 282° West 474 545 32,000  Level FlightAware UK
Wed 07:37:39 AM 49.5009 -3.6360 282° West 472 543 32,000  Level FlightAware UK
Wed 07:37:52 AM 49.5060 -3.6730 282° West 441 507 32,000  Level FlightAware ADS-B
Wed 07:38:32 AM 49.5230 -3.7960 282° West 442 509 32,000  Level FlightAware ADS-B
Wed 07:39:10 AM 49.5380 -3.9130 281° West 443 510 32,000  Level FlightAware ADS-B
Wed 07:39:56 AM 49.5570 -4.0560 281° West 444 511 32,000  Level FlightAware ADS-B
Wed 07:39:57 AM 49.5572 -4.0604 281° West 474 545 32,000  Level FlightAware UK
Wed 07:40:38 AM 49.5740 -4.1850 282° West 445 512 32,000  Level FlightAware ADS-B
Wed 07:41:20 AM 49.5900 -4.3150 281° West 446 513 32,000  Level FlightAware ADS-B
Wed 07:41:57 AM 49.6051 -4.4323 281° West 474 545 32,000  Level FlightAware UK
Wed 07:42:04 AM 49.6080 -4.4540 281° West 447 514 32,000  Level FlightAware ADS-B
Wed 07:42:42 AM 49.6230 -4.5690 281° West 448 516 32,000  Level FlightAware ADS-B
Wed 07:43:26 AM 49.6400 -4.7090 281° West 447 514 32,000  Level FlightAware ADS-B
Wed 07:44:10 AM 49.6570 -4.8460 281° West 449 517 32,000  Level FlightAware ADS-B
Wed 07:44:52 AM 49.6730 -4.9790 281° West 450 518 32,000  Level FlightAware ADS-B
Wed 07:45:41 AM 49.6870 -5.0890 281° West 450 518 32,000  Level FlightAware ADS-B
Wed 07:46:31 AM 49.7110 -5.2920 280° West 452 520 32,000  Level FlightAware ADS-B
Wed 07:47:11 AM 49.7260 -5.4190 280° West 453 521 32,000  Level FlightAware ADS-B
Wed 07:47:55 AM 49.7420 -5.5580 280° West 453 521 32,000  Level FlightAware ADS-B
Wed 07:48:33 AM 49.7562 -5.6809 280° West 476 548 32,000  Level FlightAware UK
Wed 07:48:35 AM 49.7570 -5.6870 280° West 453 521 32,000  Level FlightAware ADS-B
Wed 07:49:09 AM 49.7694 -5.7955 280° West 476 548 32,000  Level FlightAware UK
Wed 07:49:17 AM 49.7730 -5.8200 280° West 454 522 32,000  Level FlightAware ADS-B
Wed 07:49:59 AM 49.7880 -5.9540 280° West 453 521 32,000  Level FlightAware ADS-B
Wed 07:50:42 AM 49.8030 -6.0890 280° West 454 522 32,000  Level FlightAware ADS-B
Wed 07:51:24 AM 49.8180 -6.2240 280° West 454 522 32,000  Level FlightAware ADS-B
Wed 07:51:27 AM 49.8188 -6.2352 280° West 476 548 32,000  Level FlightAware UK
Wed 07:51:57 AM 49.8294 -6.3312 280° West 476 548 32,000  Level FlightAware UK
Wed 07:52:08 AM 49.8340 -6.3660 280° West 454 522 32,000  Level FlightAware ADS-B
Wed 07:52:44 AM 49.8460 -6.4810 279° West 454 522 32,000  Level FlightAware ADS-B
Wed 07:53:27 AM 49.8609 -6.6191 279° West 472 543 32,000  Level FlightAware UK
Wed 07:53:31 AM 49.8630 -6.6300 279° West 452 520 32,000  Level FlightAware ADS-B
Wed 07:54:11 AM 49.8830 -6.7560 284° West 453 521 32,000  Level FlightAware ADS-B
Wed 07:54:57 AM 49.9073 -6.9017 284° West 466 536 32,000  Level FlightAware UK
Wed 07:54:57 AM 49.9080 -6.9020 284° West 458 527 32,000  Level FlightAware ADS-B
Wed 07:55:27 AM 49.9242 -6.9968 284° West 468 539 32,000  Level FlightAware UK
Wed 07:55:37 AM 49.9300 -7.0290 284° West 463 533 32,000  Level FlightAware ADS-B
Wed 07:56:14 AM 49.9510 -7.1460 286° West 468 539 32,000  Level FlightAware ADS-B
Wed 07:57:01 AM 49.9780 -7.3020 285° West 474 545 32,000  Level FlightAware ADS-B
Wed 07:57:32 AM 49.9953 -7.4064 285° West 474 545 32,000  Level FlightAware UK
Wed 07:57:41 AM 50.0000 -7.4340 285° West 480 552 32,000  Level FlightAware ADS-B
Wed 07:58:21 AM 50.0220 -7.5670 284° West 483 556 32,000  Level FlightAware ADS-B
Wed 07:59:02 AM 50.0455 -7.7081 284° West 482 555 32,000  Level FlightAware UK
Wed 07:59:22 AM 50.0560 -7.7730 284° West 487 560 32,000 1,200 Level FlightAware ADS-B
Wed 08:00:02 AM 50.0784 -7.9110 284° West 478 550 33,200 1,857 Climbing FlightAware UK
Wed 08:00:04 AM 50.0790 -7.9110 284° West 475 547 33,300 889 Climbing FlightAware ADS-B
Wed 08:00:56 AM 50.1070 -8.0830 284° West 466 536 34,000 447 Climbing FlightAware ADS-B
Wed 08:01:38 AM 50.1288 -8.2219 284° West 468 539 34,000  Level FlightAware UK
Wed 08:01:42 AM 50.1310 -8.2310 284° West 461 531 34,000  Level FlightAware ADS-B
Wed 08:02:22 AM 50.1510 -8.3600 284° West 462 532 34,000  Level FlightAware ADS-B
Wed 08:03:04 AM 50.1720 -8.4920 284° West 466 536 34,000  Level FlightAware ADS-B
Wed 08:03:38 AM 50.1906 -8.6098 284° West 472 543 34,000  Level FlightAware UK
Wed 08:03:41 AM 50.1920 -8.6160 284° West 468 539 34,000  Level FlightAware ADS-B
Wed 08:04:30 AM 50.2170 -8.7760 284° West 469 540 34,000  Level FlightAware ADS-B
Wed 08:05:08 AM 50.2364 -8.9056 284° West 478 550 34,000  Level FlightAware UK
Wed 08:05:12 AM 50.2380 -8.9150 284° West 467 537 34,000  Level FlightAware ADS-B
Wed 08:05:54 AM 50.2590 -9.0510 284° West 465 535 34,000  Level FlightAware ADS-B
Wed 08:06:32 AM 50.2780 -9.1750 284° West 464 534 34,000  Level FlightAware ADS-B
Wed 08:07:19 AM 50.3010 -9.3290 283° West 463 533 34,000  Level FlightAware ADS-B
Wed 08:08:01 AM 50.3210 -9.4670 283° West 462 532 34,000  Level FlightAware ADS-B
Wed 08:08:40 AM 50.3380 -9.5770 284° West 462 532 34,000  Level FlightAware ADS-B
Wed 08:09:20 AM 50.3590 -9.7220 283° West 461 531 34,000  Level FlightAware ADS-B
Wed 08:10:00 AM 50.3780 -9.8520 283° West 459 528 34,000  Level FlightAware ADS-B
Wed 08:10:41 AM 50.3960 -9.9790 283° West 459 528 34,000  Level FlightAware ADS-B
Wed 08:11:42 AM 50.4230 -10.1690 283° West 458 527 34,000  Level FlightAware ADS-B
Wed 08:12:24 AM 50.4440 -10.3160 283° West 458 527 34,000  Level FlightAware ADS-B
Wed 08:13:05 AM 50.4620 -10.4480 282° West 458 527 34,000  Level FlightAware ADS-B
Wed 08:14:00 AM 50.4870 -10.6260 283° West 459 528 34,000  Level FlightAware ADS-B
Wed 08:14:44 AM 50.5070 -10.7690 282° West 459 528 34,000  Level FlightAware ADS-B
Wed 08:17:00 AM 50.5885 -11.1586 288° West  Level Estimated
Wed 08:18:00 AM 50.6240 -11.3308 288° West  Level Estimated
Wed 08:18:07 AM 50.5910 -11.4100 288° West 457 526 34,000  Level FlightAware ADS-B
Wed 08:18:44 AM 50.6040 -11.5130 281° West 457 526 34,000  Level FlightAware ADS-B
Wed 08:19:21 AM 50.6170 -11.6160 281° West 457 526 34,000  Level FlightAware ADS-B
Wed 08:20:46 AM 50.6460 -11.8520 281° West 457 526 34,000  Level FlightAware ADS-B
Wed 08:21:36 AM 50.6630 -11.9910 281° West 457 526 34,000  Level FlightAware ADS-B
Wed 08:22:09 AM 50.6740 -12.0830 281° West 457 526 34,000  Level FlightAware ADS-B
Wed 08:22:57 AM 50.6910 -12.2170 281° West 457 526 34,000  Level FlightAware ADS-B
Wed 08:23:35 AM 50.7040 -12.3230 281° West 457 526 34,000  Level FlightAware ADS-B
Wed 08:24:23 AM 50.7200 -12.4570 281° West 457 526 34,000  Level FlightAware ADS-B
Wed 08:24:58 AM 50.7320 -12.5540 281° West 457 526 34,000  Level FlightAware ADS-B
Wed 08:25:58 AM 50.7530 -12.7210 281° West 457 526 34,000  Level FlightAware ADS-B
Wed 08:26:37 AM 50.7660 -12.8300 281° West 457 526 34,000  Level FlightAware ADS-B
Wed 08:27:23 AM 50.7820 -12.9580 281° West 457 526 34,000  Level FlightAware ADS-B
Wed 08:30:00 AM 50.8684 -13.4142 287° West  Level Estimated
Wed 08:31:00 AM 50.9009 -13.5890 287° West  Level Estimated
Wed 08:32:00 AM 50.9332 -13.7640 286° West  Level Estimated
Wed 08:33:00 AM 50.9652 -13.9393 286° West  Level Estimated
Wed 08:34:00 AM 50.9969 -14.1148 286° West  Level Estimated
Wed 08:35:00 AM 51.0284 -14.2906 286° West  Level Estimated
Wed 08:36:00 AM 51.0597 -14.4666 286° West  Level Estimated
Wed 08:37:00 AM 51.0906 -14.6428 286° West  Level Estimated
Wed 08:38:00 AM 51.1213 -14.8193 286° West  Level Estimated
Wed 08:39:00 AM 51.1517 -14.9960 285° West  Level Estimated
Wed 08:40:00 AM 51.1819 -15.1729 285° West  Level Estimated
Wed 08:41:00 AM 51.2118 -15.3501 285° West  Level Estimated
Wed 08:42:00 AM 51.2414 -15.5275 285° West  Level Estimated
Wed 08:43:00 AM 51.2708 -15.7051 285° West  Level Estimated
Wed 08:44:00 AM 51.2999 -15.8829 285° West  Level Estimated
Wed 08:45:00 AM 51.3287 -16.0610 285° West  Level Estimated
Wed 08:46:00 AM 51.3573 -16.2393 284° West  Level Estimated
Wed 08:47:00 AM 51.3855 -16.4178 284° West  Level Estimated
Wed 08:48:00 AM 51.4135 -16.5965 284° West  Level Estimated
Wed 08:49:00 AM 51.4413 -16.7755 284° West  Level Estimated
Wed 08:50:00 AM 51.4687 -16.9547 284° West  Level Estimated
Wed 08:51:00 AM 51.4959 -17.1340 284° West  Level Estimated
Wed 08:52:00 AM 51.5229 -17.3136 284° West  Level Estimated
Wed 08:53:00 AM 51.5495 -17.4934 283° West  Level Estimated
Wed 08:54:00 AM 51.5759 -17.6735 283° West  Level Estimated
Wed 08:55:00 AM 51.6020 -17.8537 283° West  Level Estimated
Wed 08:56:00 AM 51.6278 -18.0341 283° West  Level Estimated
Wed 08:57:00 AM 51.6533 -18.2148 283° West  Level Estimated
Wed 08:58:00 AM 51.6786 -18.3956 283° West  Level Estimated
Wed 08:59:00 AM 51.7035 -18.5766 283° West  Level Estimated
Wed 09:00:00 AM 51.7282 -18.7579 282° West  Level Estimated
Wed 09:01:00 AM 51.7527 -18.9393 282° West  Level Estimated
Wed 09:02:00 AM 51.7768 -19.1209 282° West  Level Estimated
Wed 09:03:00 AM 51.8007 -19.3028 282° West  Level Estimated
Wed 09:04:00 AM 51.8242 -19.4848 282° West  Level Estimated
Wed 09:04:00 AM 50.0000 -20.0000 257° West 465 535 34,000  Level ETMS Enhanced Traffic Management System
Wed 09:05:00 AM 51.8475 -19.6670 282° West  Level Estimated
Wed 09:06:00 AM 51.8706 -19.8494 282° West  Level Estimated
Wed 09:07:00 AM 51.8933 -20.0319 281° West  Level Estimated
Wed 09:08:00 AM 51.9158 -20.2147 281° West  Level Estimated
Wed 09:09:00 AM 51.9379 -20.3976 281° West  Level Estimated
Wed 09:10:00 AM 49.7545 -21.5592 256° West 465 535 34,000  Level FlightAware Transoceanic
Wed 09:11:00 AM 49.7223 -21.7530 256° West 465 535 34,000  Level FlightAware Transoceanic
Wed 09:12:00 AM 49.6898 -21.9465 255° West 465 535 34,000  Level FlightAware Transoceanic
Wed 09:13:00 AM 49.6570 -22.1398 255° West 465 535 34,000  Level FlightAware Transoceanic
Wed 09:14:00 AM 49.6239 -22.3328 255° West 465 535 34,000  Level FlightAware Transoceanic
Wed 09:15:00 AM 49.5905 -22.5255 255° West 465 535 34,000  Level FlightAware Transoceanic
Wed 09:16:00 AM 49.5567 -22.7180 255° West 465 535 34,000  Level FlightAware Transoceanic
Wed 09:17:00 AM 49.5226 -22.9102 255° West 465 535 34,000  Level FlightAware Transoceanic
Wed 09:18:00 AM 49.4882 -23.1021 254° West 465 535 34,000  Level FlightAware Transoceanic
Wed 09:19:00 AM 49.4535 -23.2937 254° West 465 535 34,000  Level FlightAware Transoceanic
Wed 09:20:00 AM 49.4185 -23.4851 254° West 465 535 34,000  Level FlightAware Transoceanic
Wed 09:21:00 AM 49.3831 -23.6762 254° West 465 535 34,000  Level FlightAware Transoceanic
Wed 09:22:00 AM 49.3475 -23.8671 254° West 465 535 34,000  Level FlightAware Transoceanic
Wed 09:23:00 AM 49.3115 -24.0576 254° West 465 535 34,000  Level FlightAware Transoceanic
Wed 09:24:00 AM 49.2752 -24.2479 254° West 465 535 34,000  Level FlightAware Transoceanic
Wed 09:25:00 AM 49.2386 -24.4379 253° West 465 535 34,000  Level FlightAware Transoceanic
Wed 09:26:00 AM 49.2017 -24.6276 253° West 465 535 34,000  Level FlightAware Transoceanic
Wed 09:27:00 AM 49.1645 -24.8171 253° West 465 535 34,000  Level FlightAware Transoceanic
Wed 09:28:00 AM 49.1270 -25.0062 253° West 465 535 34,000  Level FlightAware Transoceanic
Wed 09:29:00 AM 49.0891 -25.1950 253° West 465 535 34,000  Level FlightAware Transoceanic
Wed 09:30:00 AM 49.0510 -25.3836 253° West 465 535 34,000  Level FlightAware Transoceanic
Wed 09:31:00 AM 49.0125 -25.5719 253° West 465 535 34,000  Level FlightAware Transoceanic
Wed 09:32:00 AM 48.9738 -25.7599 252° West 465 535 34,000  Level FlightAware Transoceanic
Wed 09:33:00 AM 48.9347 -25.9476 252° West 465 535 34,000  Level FlightAware Transoceanic
Wed 09:34:00 AM 48.8953 -26.1350 252° West 465 535 34,000  Level FlightAware Transoceanic
Wed 09:35:00 AM 48.8557 -26.3221 252° West 465 535 34,000  Level FlightAware Transoceanic
Wed 09:36:00 AM 48.8157 -26.5089 252° West 465 535 34,000  Level FlightAware Transoceanic
Wed 09:37:00 AM 48.7754 -26.6954 252° West 465 535 34,000  Level FlightAware Transoceanic
Wed 09:38:00 AM 48.7349 -26.8816 252° West 465 535 34,000  Level FlightAware Transoceanic
Wed 09:39:00 AM 48.6940 -27.0675 252° West 465 535 34,000  Level FlightAware Transoceanic
Wed 09:40:00 AM 48.6528 -27.2531 251° West 465 535 34,000  Level FlightAware Transoceanic
Wed 09:41:00 AM 48.6113 -27.4384 251° West 465 535 34,000  Level FlightAware Transoceanic
Wed 09:42:00 AM 48.5696 -27.6234 251° West 465 535 34,000  Level FlightAware Transoceanic
Wed 09:43:00 AM 48.5275 -27.8081 251° West 465 535 34,000  Level FlightAware Transoceanic
Wed 09:44:00 AM 48.4851 -27.9925 251° West 465 535 34,000  Level FlightAware Transoceanic
Wed 09:45:00 AM 48.4425 -28.1765 251° West 465 535 34,000  Level FlightAware Transoceanic
Wed 09:46:00 AM 48.3995 -28.3603 251° West 465 535 34,000  Level FlightAware Transoceanic
Wed 09:47:00 AM 48.3563 -28.5437 250° West 465 535 34,000  Level FlightAware Transoceanic
Wed 09:48:00 AM 48.3128 -28.7269 250° West 465 535 34,000  Level FlightAware Transoceanic
Wed 09:49:00 AM 48.2690 -28.9097 250° West 465 535 34,000  Level FlightAware Transoceanic
Wed 09:50:00 AM 48.2248 -29.0922 250° West 465 535 34,000  Level FlightAware Transoceanic
Wed 09:51:00 AM 48.1805 -29.2744 250° West 465 535 34,000  Level FlightAware Transoceanic
Wed 09:52:00 AM 48.1358 -29.4563 250° West 465 535 34,000  Level FlightAware Transoceanic
Wed 09:53:00 AM 48.0908 -29.6378 250° West 465 535 34,000  Level FlightAware Transoceanic
Wed 09:54:00 AM 48.0455 -29.8191 249° West 465 535 34,000  Level FlightAware Transoceanic
Wed 09:55:00 AM 48.0688 -29.9876 282° West  Level Estimated
Wed 09:56:00 AM 48.0918 -30.1562 282° West  Level Estimated
Wed 09:57:00 AM 48.1145 -30.3249 281° West  Level Estimated
Wed 09:58:00 AM 48.1370 -30.4939 281° West  Level Estimated
Wed 09:59:00 AM 48.1592 -30.6629 281° West  Level Estimated
Wed 10:00:00 AM 48.1812 -30.8321 281° West  Level Estimated
Wed 10:01:00 AM 48.2029 -31.0015 281° West  Level Estimated
Wed 10:02:00 AM 48.2244 -31.1710 281° West  Level Estimated
Wed 10:03:00 AM 48.2457 -31.3406 281° West  Level Estimated
Wed 10:04:00 AM 48.2667 -31.5104 281° West  Level Estimated
Wed 10:05:00 AM 48.2874 -31.6803 280° West  Level Estimated
Wed 10:06:00 AM 48.3079 -31.8504 280° West  Level Estimated
Wed 10:07:00 AM 48.3282 -32.0206 280° West  Level Estimated
Wed 10:08:00 AM 48.3482 -32.1909 280° West  Level Estimated
Wed 10:09:00 AM 48.3679 -32.3614 280° West  Level Estimated
Wed 10:10:00 AM 48.3874 -32.5320 280° West  Level Estimated
Wed 10:11:00 AM 48.4067 -32.7027 280° West  Level Estimated
Wed 10:12:00 AM 48.4256 -32.8735 280° West  Level Estimated
Wed 10:13:00 AM 48.4444 -33.0445 279° West  Level Estimated
Wed 10:14:00 AM 48.4628 -33.2156 279° West  Level Estimated
Wed 10:15:00 AM 48.4811 -33.3868 279° West  Level Estimated
Wed 10:16:00 AM 48.4990 -33.5582 279° West  Level Estimated
Wed 10:17:00 AM 48.5168 -33.7296 279° West  Level Estimated
Wed 10:18:00 AM 48.5342 -33.9012 279° West  Level Estimated
Wed 10:18:17 AM 48.0000 -30.0000 257° West 464 534 34,000  Level ETMS Enhanced Traffic Management System
Wed 10:19:00 AM 48.5514 -34.0729 279° West  Level Estimated
Wed 10:20:00 AM 48.5684 -34.2448 279° West  Level Estimated
Wed 10:21:00 AM 48.5851 -34.4167 278° West  Level Estimated
Wed 10:22:00 AM 48.6015 -34.5887 278° West  Level Estimated
Wed 10:23:00 AM 48.6177 -34.7609 278° West  Level Estimated
Wed 10:24:00 AM 47.0539 -35.3665 253° West 464 534 34,000  Level FlightAware Transoceanic
Wed 10:25:00 AM 47.0169 -35.5480 253° West 464 534 34,000  Level FlightAware Transoceanic
Wed 10:26:00 AM 46.9795 -35.7292 253° West 464 534 34,000  Level FlightAware Transoceanic
Wed 10:27:00 AM 46.9419 -35.9102 253° West 464 534 34,000  Level FlightAware Transoceanic
Wed 10:28:00 AM 46.9040 -36.0909 253° West 464 534 34,000  Level FlightAware Transoceanic
Wed 10:29:00 AM 46.8659 -36.2714 253° West 464 534 34,000  Level FlightAware Transoceanic
Wed 10:30:00 AM 46.8274 -36.4516 253° West 464 534 34,000  Level FlightAware Transoceanic
Wed 10:31:00 AM 46.7887 -36.6315 252° West 464 534 34,000  Level FlightAware Transoceanic
Wed 10:32:00 AM 46.7496 -36.8112 252° West 464 534 34,000  Level FlightAware Transoceanic
Wed 10:33:00 AM 46.7103 -36.9907 252° West 464 534 34,000  Level FlightAware Transoceanic
Wed 10:34:00 AM 46.6708 -37.1698 252° West 464 534 34,000  Level FlightAware Transoceanic
Wed 10:35:00 AM 46.6309 -37.3487 252° West 464 534 34,000  Level FlightAware Transoceanic
Wed 10:36:00 AM 46.5908 -37.5274 252° West 464 534 34,000  Level FlightAware Transoceanic
Wed 10:37:00 AM 46.5503 -37.7057 252° West 464 534 34,000  Level FlightAware Transoceanic
Wed 10:38:00 AM 46.5096 -37.8839 252° West 464 534 34,000  Level FlightAware Transoceanic
Wed 10:39:00 AM 46.4687 -38.0617 251° West 464 534 34,000  Level FlightAware Transoceanic
Wed 10:40:00 AM 46.4274 -38.2393 251° West 464 534 34,000  Level FlightAware Transoceanic
Wed 10:41:00 AM 46.3859 -38.4166 251° West 464 534 34,000  Level FlightAware Transoceanic
Wed 10:42:00 AM 46.3441 -38.5936 251° West 464 534 34,000  Level FlightAware Transoceanic
Wed 10:43:00 AM 46.3020 -38.7704 251° West 464 534 34,000  Level FlightAware Transoceanic
Wed 10:44:00 AM 46.2597 -38.9468 251° West 464 534 34,000  Level FlightAware Transoceanic
Wed 10:45:00 AM 46.2171 -39.1231 251° West 464 534 34,000  Level FlightAware Transoceanic
Wed 10:46:00 AM 46.1742 -39.2990 251° West 464 534 34,000  Level FlightAware Transoceanic
Wed 10:47:00 AM 46.1311 -39.4747 250° West 464 534 34,000  Level FlightAware Transoceanic
Wed 10:48:00 AM 46.0876 -39.6501 250° West 464 534 34,000  Level FlightAware Transoceanic
Wed 10:49:00 AM 46.0439 -39.8252 250° West 464 534 34,000  Level FlightAware Transoceanic
Wed 10:50:00 AM 46.0657 -39.9879 281° West  Level Estimated
Wed 10:51:00 AM 46.0872 -40.1507 281° West  Level Estimated
Wed 10:52:00 AM 46.1085 -40.3136 281° West  Level Estimated
Wed 10:52:00 AM 46.0000 -40.0000 265° West 446 513 34,000  Level ETMS Enhanced Traffic Management System
Wed 10:53:00 AM 46.1296 -40.4767 281° West  Level Estimated
Wed 10:54:00 AM 46.1505 -40.6398 281° West  Level Estimated
Wed 10:55:00 AM 46.1711 -40.8031 280° West  Level Estimated
Wed 10:56:00 AM 46.1915 -40.9669 280° West  Level Estimated
Wed 10:57:00 AM 46.2117 -41.1308 280° West  Level Estimated
Wed 10:58:00 AM 45.9128 -41.4229 264° West 446 513 34,000  Level FlightAware Transoceanic
Wed 10:59:00 AM 45.9006 -41.6004 264° West 446 513 34,000  Level FlightAware Transoceanic
Wed 11:00:00 AM 45.8882 -41.7779 264° West 446 513 34,000  Level FlightAware Transoceanic
Wed 11:01:00 AM 45.8755 -41.9552 264° West 446 513 34,000  Level FlightAware Transoceanic
Wed 11:02:00 AM 45.8625 -42.1325 264° West 446 513 34,000  Level FlightAware Transoceanic
Wed 11:03:00 AM 45.8493 -42.3097 264° West 446 513 34,000  Level FlightAware Transoceanic
Wed 11:04:00 AM 45.8358 -42.4868 264° West 446 513 34,000  Level FlightAware Transoceanic
Wed 11:05:00 AM 45.8220 -42.6639 264° West 446 513 34,000  Level FlightAware Transoceanic
Wed 11:06:00 AM 45.8079 -42.8408 263° West 446 513 34,000  Level FlightAware Transoceanic
Wed 11:07:00 AM 45.7936 -43.0177 263° West 446 513 34,000  Level FlightAware Transoceanic
Wed 11:08:00 AM 45.7790 -43.1944 263° West 446 513 34,000  Level FlightAware Transoceanic
Wed 11:09:00 AM 45.7641 -43.3711 263° West 446 513 34,000  Level FlightAware Transoceanic
Wed 11:10:00 AM 45.7489 -43.5477 263° West 446 513 34,000  Level FlightAware Transoceanic
Wed 11:11:00 AM 45.7335 -43.7242 263° West 446 513 34,000  Level FlightAware Transoceanic
Wed 11:12:00 AM 45.7178 -43.9006 263° West 446 513 34,000  Level FlightAware Transoceanic
Wed 11:13:00 AM 45.7019 -44.0768 263° West 446 513 34,000  Level FlightAware Transoceanic
Wed 11:14:00 AM 45.6856 -44.2530 262° West 446 513 34,000  Level FlightAware Transoceanic
Wed 11:15:00 AM 45.6691 -44.4291 262° West 446 513 34,000  Level FlightAware Transoceanic
Wed 11:16:00 AM 45.6523 -44.6051 262° West 446 513 34,000  Level FlightAware Transoceanic
Wed 11:17:00 AM 45.6353 -44.7809 262° West 446 513 34,000  Level FlightAware Transoceanic
Wed 11:18:00 AM 45.6180 -44.9567 262° West 446 513 34,000  Level FlightAware Transoceanic
Wed 11:19:00 AM 45.6004 -45.1323 262° West 446 513 34,000  Level FlightAware Transoceanic
Wed 11:20:00 AM 45.5825 -45.3079 262° West 446 513 34,000  Level FlightAware Transoceanic
Wed 11:21:00 AM 45.5644 -45.4833 262° West 446 513 34,000  Level FlightAware Transoceanic
Wed 11:22:00 AM 45.5460 -45.6586 261° West 446 513 34,000  Level FlightAware Transoceanic
Wed 11:23:00 AM 45.5273 -45.8338 261° West 446 513 34,000  Level FlightAware Transoceanic
Wed 11:24:00 AM 45.5084 -46.0089 261° West 446 513 34,000  Level FlightAware Transoceanic
Wed 11:25:00 AM 45.4892 -46.1838 261° West 446 513 34,000  Level FlightAware Transoceanic
Wed 11:26:00 AM 45.4697 -46.3587 261° West 446 513 34,000  Level FlightAware Transoceanic
Wed 11:27:00 AM 45.4500 -46.5334 261° West 446 513 34,000  Level FlightAware Transoceanic
Wed 11:28:00 AM 45.4300 -46.7080 261° West 446 513 34,000  Level FlightAware Transoceanic
Wed 11:29:00 AM 45.4097 -46.8825 261° West 446 513 34,000  Level FlightAware Transoceanic
Wed 11:30:00 AM 45.3892 -47.0568 260° West 446 513 34,000  Level FlightAware Transoceanic
Wed 11:31:00 AM 45.3684 -47.2310 260° West 446 513 34,000  Level FlightAware Transoceanic
Wed 11:32:00 AM 45.3474 -47.4051 260° West 446 513 34,000  Level FlightAware Transoceanic
Wed 11:33:00 AM 45.3260 -47.5791 260° West 446 513 34,000  Level FlightAware Transoceanic
Wed 11:34:00 AM 45.3045 -47.7529 260° West 446 513 34,000  Level FlightAware Transoceanic
Wed 11:35:00 AM 45.2826 -47.9266 260° West 446 513 34,000  Level FlightAware Transoceanic
Wed 11:36:00 AM 45.2605 -48.1001 260° West 446 513 34,000  Level FlightAware Transoceanic
Wed 11:37:00 AM 45.2381 -48.2736 260° West 446 513 34,000  Level FlightAware Transoceanic
Wed 11:38:00 AM 45.2155 -48.4468 259° West 446 513 34,000  Level FlightAware Transoceanic
Wed 11:39:00 AM 45.1926 -48.6200 259° West 446 513 34,000  Level FlightAware Transoceanic
Wed 11:40:00 AM 45.1694 -48.7930 259° West 446 513 34,000  Level FlightAware Transoceanic
Wed 11:41:00 AM 45.1460 -48.9659 259° West 446 513 34,000  Level FlightAware Transoceanic
Wed 11:42:00 AM 45.1223 -49.1386 259° West 446 513 34,000  Level FlightAware Transoceanic
Wed 11:43:00 AM 45.0984 -49.3112 259° West 446 513 34,000  Level FlightAware Transoceanic
Wed 11:44:00 AM 45.0742 -49.4836 259° West 446 513 34,000  Level FlightAware Transoceanic
Wed 11:45:00 AM 45.0497 -49.6559 259° West 446 513 34,000  Level FlightAware Transoceanic
Wed 11:46:00 AM 45.0250 -49.8280 258° West 446 513 34,000  Level FlightAware Transoceanic
Wed 11:47:00 AM 45.0449 -49.9882 280° West  Level Estimated
Wed 11:48:00 AM 45.0646 -50.1486 280° West  Level Estimated
Wed 11:48:00 AM 45.0000 -50.0000 265° West 426 490 34,000  Level ETMS Enhanced Traffic Management System
Wed 11:49:00 AM 45.0841 -50.3090 280° West  Level Estimated
Wed 11:49:40 AM 44.9500 -50.3000 279° West 440 506 34,000  Level Gander Center
Wed 11:50:00 AM 45.1034 -50.4699 280° West  Level Estimated
Wed 11:50:40 AM 44.9500 -50.5000 270° West 440 506 34,000  Level Gander Center
Wed 11:51:00 AM 45.1225 -50.6310 280° West  Level Estimated
Wed 11:51:40 AM 44.9667 -50.6667 278° West 440 506 34,000  Level Gander Center
Wed 11:52:00 AM 45.1413 -50.7921 279° West  Level Estimated
Wed 11:52:40 AM 44.9667 -50.8333 270° West 430 495 34,000  Level Gander Center
Wed 11:53:00 AM 45.1599 -50.9533 279° West  Level Estimated
Wed 11:53:40 AM 44.9833 -51.0167 277° West 440 506 34,000  Level Gander Center
Wed 11:54:00 AM 45.1168 -50.9646 280° West  Level Estimated
Wed 11:54:40 AM 44.9833 -51.1833 270° West 440 506 34,000  Level Gander Center
Wed 11:55:00 AM 45.1359 -51.1290 279° West  Level Estimated
Wed 11:55:40 AM 45.0000 -51.3333 279° West 440 506 34,000  Level Gander Center
Wed 11:56:33 AM 45.0000 -51.5000 270° West 440 506 34,800 956 Climbing Gander Center
Wed 11:57:33 AM 45.0167 -51.6667 278° West 440 506 35,800 600 Climbing Gander Center
Wed 11:58:33 AM 45.0167 -51.8333 270° West 430 495 36,000 300 Climbing Gander Center
Wed 11:59:33 AM 45.0333 -52.0000 278° West 430 495 36,400 650 Climbing Gander Center
Wed 12:00:33 PM 45.0333 -52.1667 270° West 420 483 37,300 800 Climbing Gander Center
Wed 12:01:33 PM 45.0333 -52.3333 270° West 430 495 38,000 350 Climbing Gander Center
Wed 12:02:33 PM 45.0333 -52.5000 270° West 430 495 38,000  Level Gander Center
Wed 12:03:33 PM 45.0500 -52.6667 278° West 410 472 38,000  Level Gander Center
Wed 12:04:33 PM 45.0667 -52.8167 279° West 410 472 38,000  Level Gander Center
Wed 12:05:33 PM 45.0667 -52.9833 270° West 420 483 38,000  Level Gander Center
Wed 12:06:33 PM 45.0667 -53.1500 270° West 410 472 38,000  Level Gander Center
Wed 12:07:33 PM 45.0667 -53.3167 270° West 420 483 38,000  Level Gander Center
Wed 12:08:33 PM 45.0833 -53.4833 278° West 420 483 38,000  Level Gander Center
Wed 12:14:24 PM 45.1140 -54.4930 278° West 421 484 38,000  Level FlightAware ADS-B
Wed 12:17:49 PM 45.1200 -54.9850 271° West 421 484 38,000  Level FlightAware ADS-B
Wed 12:18:27 PM 45.1210 -55.0740 271° West 421 484 38,000  Level FlightAware ADS-B
Wed 12:19:31 PM 45.1230 -55.2240 271° West 421 484 38,000  Level FlightAware ADS-B
Wed 12:20:07 PM 45.1240 -55.3090 271° West 421 484 38,000  Level FlightAware ADS-B
Wed 12:21:08 PM 45.1260 -55.4520 271° West 421 484 38,000  Level FlightAware ADS-B
Wed 12:21:44 PM 45.1270 -55.5360 271° West 421 484 38,000  Level FlightAware ADS-B
Wed 12:22:32 PM 45.1280 -55.6490 271° West 421 484 38,000  Level FlightAware ADS-B
Wed 12:23:09 PM 45.1290 -55.7360 271° West 421 484 38,000  Level FlightAware ADS-B
Wed 12:23:56 PM 45.1310 -55.8460 272° West 421 484 38,000  Level FlightAware ADS-B
Wed 12:24:32 PM 45.1320 -55.9310 271° West 421 484 38,000  Level FlightAware ADS-B
Wed 12:27:41 PM 45.1310 -56.6960 270° West 427 491 38,000  Level FlightAware ADS-B
Wed 12:28:15 PM 45.1310 -56.7880 270° West 426 490 38,000  Level FlightAware ADS-B
Wed 12:29:03 PM 45.1310 -56.9240 270° West 426 490 38,000  Level FlightAware ADS-B
Wed 12:29:45 PM 45.1300 -57.0400 269° West 426 490 38,000  Level FlightAware ADS-B
Wed 12:30:39 PM 45.1290 -57.1890 270° West 425 489 38,000  Level FlightAware ADS-B
Wed 12:31:25 PM 45.1290 -57.3180 270° West 426 490 38,000  Level FlightAware ADS-B
Wed 12:32:03 PM 45.1280 -57.4240 269° West 426 490 38,000  Level FlightAware ADS-B
Wed 12:32:45 PM 45.1270 -57.5380 269° West 426 490 38,000  Level FlightAware ADS-B
Wed 12:33:31 PM 45.1260 -57.6670 269° West 426 490 38,000  Level FlightAware ADS-B
Wed 12:34:11 PM 45.1240 -57.7790 269° West 426 490 38,000  Level FlightAware ADS-B
Wed 12:34:55 PM 45.1230 -57.9020 269° West 426 490 38,000  Level FlightAware ADS-B
Wed 12:35:31 PM 45.1220 -58.0010 269° West 426 490 38,000  Level FlightAware ADS-B
Wed 12:36:18 PM 45.1200 -58.1300 269° West 426 490 38,000  Level FlightAware ADS-B
Wed 12:36:55 PM 45.1180 -58.2340 268° West 426 490 38,000  Level FlightAware ADS-B
Wed 12:37:37 PM 45.1170 -58.3510 269° West 426 490 38,000  Level FlightAware ADS-B
Wed 12:38:23 PM 45.1140 -58.4800 268° West 426 490 38,000  Level FlightAware ADS-B
Wed 12:39:03 PM 45.1120 -58.5920 269° West 427 491 38,000  Level FlightAware ADS-B
Wed 12:39:47 PM 45.1100 -58.7120 269° West 427 491 38,000  Level FlightAware ADS-B
Wed 12:40:23 PM 45.1080 -58.8130 268° West 426 490 38,000  Level FlightAware ADS-B
Wed 12:41:13 PM 45.1050 -58.9520 268° West 424 488 38,000  Level FlightAware ADS-B
Wed 12:41:51 PM 45.1030 -59.0570 268° West 423 487 38,000  Level FlightAware ADS-B
Wed 12:42:35 PM 45.1000 -59.1770 268° West 423 487 38,000  Level FlightAware ADS-B
Wed 12:43:15 PM 45.0980 -59.2870 269° West 422 486 38,000  Level FlightAware ADS-B
Wed 12:44:01 PM 45.0950 -59.3980 268° West 422 486 38,000  Level FlightAware ADS-B
Wed 12:44:43 PM 45.0920 -59.5320 268° West 423 487 38,000  Level FlightAware ADS-B
Wed 12:44:51 PM 45.0910 -59.5540 266° West 422 486 38,000  Level FlightAware ADS-B
Wed 12:47:26 PM 45.0800 -59.9440 268° West 423 487 38,000  Level FlightAware ADS-B
Wed 12:48:13 PM 45.0750 -60.1100 268° West 424 488 38,000  Level FlightAware ADS-B
Wed 12:48:53 PM 45.0710 -60.2190 267° West 424 488 38,000  Level FlightAware ADS-B
Wed 12:49:33 PM 45.0680 -60.3300 268° West 423 487 38,000  Level FlightAware ADS-B
Wed 12:50:09 PM 45.0640 -60.4280 267° West 421 484 38,000  Level FlightAware ADS-B
Wed 12:51:05 PM 45.0590 -60.5830 267° West 420 483 38,000  Level FlightAware ADS-B
Wed 12:51:55 PM 45.0540 -60.7200 267° West 420 483 38,000  Level FlightAware ADS-B
Wed 12:52:37 PM 45.0500 -60.8330 267° West 419 482 38,000  Level FlightAware ADS-B
Wed 12:53:18 PM 45.0450 -60.9460 266° West 418 481 38,000  Level FlightAware ADS-B
Wed 12:53:56 PM 45.0410 -61.0500 267° West 418 481 38,000  Level FlightAware ADS-B
Wed 12:54:35 PM 45.0370 -61.1450 267° West 418 481 38,000  Level FlightAware ADS-B
Wed 12:55:24 PM 45.0310 -61.2590 266° West 418 481 38,000  Level FlightAware ADS-B
Wed 12:56:01 PM 45.0270 -61.3440 266° West 418 481 38,000  Level FlightAware ADS-B
Wed 12:56:50 PM 45.0210 -61.4580 266° West 418 481 38,000  Level FlightAware ADS-B
Wed 12:57:28 PM 45.0170 -61.5460 266° West 418 481 38,000  Level FlightAware ADS-B
Wed 12:58:02 PM 45.0130 -61.6250 266° West 418 481 38,000  Level FlightAware ADS-B
Wed 12:58:37 PM 45.0090 -61.7060 266° West 418 481 38,000  Level FlightAware ADS-B
Wed 12:59:25 PM 45.0030 -61.8180 266° West 418 481 38,000  Level FlightAware ADS-B
Wed 01:02:00 PM 44.9860 -62.1770 266° West 418 481 38,000  Level FlightAware ADS-B
Wed 01:02:46 PM 44.9800 -62.2840 266° West 418 481 38,000  Level FlightAware ADS-B
Wed 01:03:22 PM 44.9760 -62.3670 266° West 418 481 38,000  Level FlightAware ADS-B
Wed 01:04:02 PM 44.9720 -62.4600 267° West 418 481 38,000  Level FlightAware ADS-B
Wed 01:06:42 PM 44.9410 -63.0930 266° West 409 471 38,000  Level FlightAware ADS-B
Wed 01:07:19 PM 44.9360 -63.1920 266° West 408 470 38,000  Level FlightAware ADS-B
Wed 01:08:10 PM 44.9280 -63.3220 265° West 409 471 38,000  Level FlightAware ADS-B
Wed 01:08:57 PM 44.9310 -63.4550 272° West 415 478 38,000  Level FlightAware ADS-B
Wed 01:09:44 PM 44.9500 -63.5820 282° West 417 480 38,000  Level FlightAware ADS-B
Wed 01:10:23 PM 44.9680 -63.6940 283° West 416 479 38,000  Level FlightAware ADS-B
Wed 01:10:52 PM 44.9800 -63.7730 282° West 416 479 38,000  Level FlightAware ADS-B
Wed 01:11:30 PM 44.9940 -63.8700 282° West 416 479 38,000  Level FlightAware ADS-B
Wed 01:12:15 PM 45.0120 -63.9920 282° West 416 479 38,000  Level FlightAware ADS-B
Wed 01:12:57 PM 45.0290 -64.1040 282° West 416 479 38,000  Level FlightAware ADS-B
Wed 01:13:34 PM 45.0430 -64.2030 281° West 416 479 38,000  Level FlightAware ADS-B
Wed 01:14:18 PM 45.0600 -64.3200 282° West 416 479 38,000  Level FlightAware ADS-B
Wed 01:14:57 PM 45.0750 -64.4230 282° West 415 478 38,000  Level FlightAware ADS-B
Wed 01:16:28 PM 45.1050 -64.6340 281° West 417 480 38,000  Level FlightAware ADS-B
Wed 01:17:15 PM 45.1270 -64.7900 281° West 416 479 38,000  Level FlightAware ADS-B
Wed 01:17:58 PM 45.1440 -64.9060 282° West 417 480 38,000  Level FlightAware ADS-B
Wed 01:18:35 PM 45.1570 -65.0030 281° West 416 479 38,000  Level FlightAware ADS-B
Wed 01:19:22 PM 45.1750 -65.1310 281° West 415 478 38,000  Level FlightAware ADS-B
Wed 01:20:03 PM 45.1900 -65.2390 281° West 416 479 38,000  Level FlightAware ADS-B
Wed 01:20:46 PM 45.2050 -65.3550 280° West 417 480 38,000  Level FlightAware ADS-B
Wed 01:21:27 PM 45.2200 -65.4610 281° West 417 480 38,000  Level FlightAware ADS-B
Wed 01:22:04 PM 45.2330 -65.5620 280° West 417 480 38,000  Level FlightAware ADS-B
Wed 01:22:51 PM 45.2500 -65.6860 281° West 408 470 38,000  Level FlightAware ADS-B
Wed 01:23:35 PM 45.2650 -65.8040 280° West 407 468 38,000  Level FlightAware ADS-B
Wed 01:24:12 PM 45.2780 -65.9010 281° West 408 470 38,000  Level FlightAware ADS-B
Wed 01:24:56 PM 45.2930 -66.0140 281° West 408 470 38,000  Level FlightAware ADS-B
Wed 01:25:35 PM 45.3060 -66.1150 280° West 407 468 38,000  Level FlightAware ADS-B
Wed 01:26:19 PM 45.3210 -66.2330 280° West 407 468 38,000  Level FlightAware ADS-B
Wed 01:27:13 PM 45.3380 -66.3720 280° West 407 468 38,000  Level FlightAware ADS-B
Wed 01:27:55 PM 45.3520 -66.4840 280° West 406 467 38,000  Level FlightAware ADS-B
Wed 01:28:37 PM 45.3660 -66.5940 280° West 404 465 38,000  Level FlightAware ADS-B
Wed 01:29:25 PM 45.3810 -66.7190 280° West 402 463 38,000  Level FlightAware ADS-B
Wed 01:30:18 PM 45.3980 -66.8590 280° West 402 463 38,000  Level FlightAware ADS-B
Wed 01:31:02 PM 45.4120 -66.9730 280° West 403 464 38,000  Level FlightAware ADS-B
Wed 01:31:58 PM 45.4300 -67.1210 280° West 403 464 38,000  Level FlightAware ADS-B
Wed 01:32:37 PM 45.4420 -67.2200 280° West 403 464 38,000  Level FlightAware ADS-B
Wed 01:33:14 PM 45.4520 -67.3090 279° West 403 464 38,000  Level FlightAware ADS-B
Wed 01:34:01 PM 45.4670 -67.4380 279° West 403 464 38,000  Level FlightAware ADS-B
Wed 01:34:45 PM 45.4810 -67.5550 280° West 404 465 38,000  Level FlightAware ADS-B
Wed 01:35:36 PM 45.4960 -67.6890 279° West 404 465 38,000  Level FlightAware ADS-B
Wed 01:36:22 PM 45.5090 -67.8050 279° West 402 463 38,000  Level FlightAware ADS-B
Wed 01:37:06 PM 45.5220 -67.9250 279° West 402 463 38,000  Level FlightAware ADS-B
Wed 01:37:45 PM 45.5340 -68.0270 280° West 401 461 38,000  Level FlightAware ADS-B
Wed 01:38:30 PM 45.5470 -68.1430 279° West 401 461 38,000  Level FlightAware ADS-B
Wed 01:39:08 PM 45.5570 -68.2430 278° West 402 463 38,000  Level FlightAware ADS-B
Wed 01:39:54 PM 45.5700 -68.3620 279° West 402 463 38,000  Level FlightAware ADS-B
Wed 01:40:50 PM 45.5850 -68.5090 278° West 401 461 38,000  Level FlightAware ADS-B
Wed 01:41:25 PM 45.5910 -68.5940 276° West 400 460 38,000  Level FlightAware ADS-B
Wed 01:42:09 PM 45.5980 -68.7180 275° West 400 460 38,000  Level FlightAware ADS-B
Wed 01:42:54 PM 45.6040 -68.8360 274° West 399 459 38,000  Level FlightAware ADS-B
Wed 01:43:36 PM 45.6100 -68.9460 274° West 399 459 38,000  Level FlightAware ADS-B
Wed 01:44:16 PM 45.6150 -69.0480 274° West 398 458 38,000  Level FlightAware ADS-B
Wed 01:44:56 PM 45.6210 -69.1550 275° West 397 457 38,000  Level FlightAware ADS-B
Wed 01:45:40 PM 45.6260 -69.2660 274° West 397 457 38,000  Level FlightAware ADS-B
Wed 01:46:25 PM 45.6320 -69.3800 274° West 396 456 38,000  Level FlightAware ADS-B
Wed 01:47:05 PM 45.6370 -69.4880 274° West 395 455 38,000  Level FlightAware ADS-B
Wed 01:47:50 PM 45.6430 -69.6010 274° West 394 453 38,000  Level FlightAware ADS-B
Wed 01:48:30 PM 45.6480 -69.7100 274° West 393 452 38,000  Level FlightAware ADS-B
Wed 01:49:10 PM 45.6520 -69.8120 273° West 394 453 38,000  Level FlightAware ADS-B
Wed 01:49:50 PM 45.6570 -69.9150 274° West 392 451 38,000  Level FlightAware ADS-B
Wed 01:50:30 PM 45.6610 -70.0140 273° West 391 450 38,000  Level FlightAware ADS-B
Wed 01:51:20 PM 45.6670 -70.1430 274° West 390 449 38,000  Level FlightAware ADS-B
Wed 01:52:00 PM 45.6710 -70.2500 273° West 390 449 38,000  Level FlightAware ADS-B
Wed 01:52:40 PM 45.6750 -70.3530 273° West 388 447 38,000  Level FlightAware ADS-B
Wed 01:53:20 PM 45.6790 -70.4500 273° West 389 448 38,000  Level FlightAware ADS-B
Wed 01:54:05 PM 45.6840 -70.5720 273° West 390 449 38,000  Level FlightAware ADS-B
Wed 01:54:50 PM 45.6880 -70.6840 273° West 392 451 38,000  Level FlightAware ADS-B
Wed 01:55:30 PM 45.6920 -70.7840 273° West 393 452 38,000 -150 Level FlightAware ADS-B
Wed 01:56:10 PM 45.6950 -70.8850 272° West 385 443 37,800 -776 Descending FlightAware ADS-B
Wed 01:56:55 PM 45.6990 -70.9980 273° West 383 441 36,900 -1,533 Descending FlightAware ADS-B
Wed 01:57:40 PM 45.7030 -71.1190 273° West 391 450 35,500 -1,735 Descending FlightAware ADS-B
Wed 01:58:18 PM 45.7060 -71.2120 273° West 401 461 34,500 -1,575 Descending FlightAware ADS-B
Wed 01:59:00 PM 45.7100 -71.3340 273° West 405 466 33,400 -1,463 Descending FlightAware ADS-B
Wed 01:59:40 PM 45.7130 -71.4300 273° West 407 468 32,500 -1,418 Descending FlightAware ADS-B
Wed 01:59:55 PM 45.7150 -71.4790 273° West 408 470 32,100 -1,289 Descending FlightAware ADS-B
Wed 02:01:41 PM 45.7230 -71.7700 272° West 410 472 29,900 -1,224 Descending FlightAware ADS-B
Wed 02:02:22 PM 45.7260 -71.8790 272° West 413 475 29,100 -975 Descending FlightAware ADS-B
Wed 02:03:01 PM 45.7290 -71.9870 272° West 408 470 28,600 -759 Descending FlightAware ADS-B
Wed 02:03:41 PM 45.7320 -72.0940 272° West 405 466 28,100 -400 Descending FlightAware ADS-B
Wed 02:04:31 PM 45.7350 -72.2250 272° West 397 457 28,000 -67 Descending FlightAware ADS-B
Wed 02:05:11 PM 45.7370 -72.3290 272° West 393 452 28,000 -148 Level FlightAware ADS-B
Wed 02:05:52 PM 45.7390 -72.4330 272° West 397 457 27,800 -1,482 Descending FlightAware ADS-B
Wed 02:06:36 PM 45.7420 -72.5510 272° West 397 457 25,900 -3,286 Descending FlightAware ADS-B
Wed 02:07:16 PM 45.7440 -72.6560 272° West 419 482 23,200 -3,455 Descending FlightAware ADS-B
Wed 02:08:15 PM 45.7400 -72.8200 268° West 421 484 20,200 -2,667 Descending FlightAware ADS-B
Wed 02:08:55 PM 45.7290 -72.9290 262° West 398 458 18,800 -2,143 Descending FlightAware ADS-B
Wed 02:09:39 PM 45.7170 -73.0380 261° West 383 441 17,200 -2,400 Descending FlightAware ADS-B
Wed 02:10:15 PM 45.7030 -73.1280 257° West 377 434 15,600 -2,500 Descending FlightAware ADS-B
Wed 02:11:03 PM 45.6610 -73.2310 240° Southwest 372 428 13,700 -1,451 Descending FlightAware ADS-B
Wed 02:11:46 PM 45.6270 -73.3080 238° Southwest 371 427 13,400 -2,195 Descending FlightAware ADS-B
Wed 02:12:25 PM 45.5880 -73.3960 238° Southwest 350 403 10,700 -2,296 Descending FlightAware ADS-B
Wed 02:13:07 PM 45.5450 -73.4640 228° Southwest 314 361 10,300 -439 Descending FlightAware ADS-B
Wed 02:13:47 PM 45.5040 -73.5180 223° Southwest 280 322 10,100 -636 Descending FlightAware ADS-B
Wed 02:14:13 PM 45.4810 -73.5490 223° Southwest 272 313 9,600 -1,435 Descending FlightAware ADS-B
Wed 02:14:33 PM 45.4630 -73.5730 223° Southwest 271 312 9,000 -1,875 Descending FlightAware ADS-B
Wed 02:15:01 PM 45.4370 -73.6080 223° Southwest 269 310 8,100 -1,778 Descending FlightAware ADS-B
Wed 02:15:27 PM 45.4130 -73.6390 222° Southwest 268 308 7,400 -1,429 Descending FlightAware ADS-B
Wed 02:15:43 PM 45.3990 -73.6570 222° Southwest 266 306 7,100 -1,227 Descending FlightAware ADS-B
Wed 02:16:11 PM 45.3740 -73.6900 223° Southwest 262 302 6,500 -1,333 Descending FlightAware ADS-B
Wed 02:16:37 PM 45.3510 -73.7200 223° Southwest 262 302 5,900 -1,556 Descending FlightAware ADS-B
Wed 02:17:05 PM 45.3250 -73.7540 223° Southwest 266 306 5,100 -1,358 Descending FlightAware ADS-B
Wed 02:17:30 PM 45.3040 -73.7820 223° Southwest 256 295 4,700 -947 Descending FlightAware ADS-B
Wed 02:18:02 PM 45.2770 -73.8160 222° Southwest 230 265 4,200 -621 Descending FlightAware ADS-B
Wed 02:18:28 PM 45.2590 -73.8420 225° Southwest 223 257 4,100 -150 Descending FlightAware ADS-B
Wed 02:18:42 PM 45.2550 -73.8640 256° West 213 245 4,100 -143 Level FlightAware ADS-B
Wed 02:19:10 PM 45.2700 -73.8910 308° West 203 234 4,000 -409 Descending FlightAware ADS-B
Wed 02:19:26 PM 45.2850 -73.8960 347° North 205 236 3,800 -783 Descending FlightAware ADS-B
Wed 02:19:56 PM 45.3120 -73.9040 348° North 196 226 3,400 -692 Descending FlightAware ADS-B
Wed 02:20:18 PM 45.3310 -73.9080 352° North 188 216 3,200 -383 Descending FlightAware ADS-B
Wed 02:20:43 PM 45.3520 -73.9000 15° North 194 223 3,100 -667 Descending FlightAware ADS-B
Wed 02:21:03 PM 45.3660 -73.8900 27° Northeast 200 230 2,700 -1,067 Descending FlightAware ADS-B
Wed 02:21:28 PM 45.3840 -73.8650 44° Northeast 196 226 2,300 -1,050 Descending FlightAware ADS-B
Wed 02:21:43 PM 45.3950 -73.8520 40° Northeast 193 222 2,000 -1,067 Descending FlightAware ADS-B
Wed 02:22:13 PM 45.4130 -73.8270 44° Northeast 186 214 1,500 -900 Descending FlightAware ADS-B
Wed 02:22:43 PM 45.4310 -73.8050 41° Northeast 157 181 1,100 -873 Descending FlightAware ADS-B
Wed 02:23:08 PM 45.4430 -73.7890 43° Northeast 138 159 700 -764 Descending FlightAware ADS-B
Wed 02:23:38 PM 45.4570 -73.7700 44° Northeast 140 161 400 -600 Descending FlightAware ADS-B
Wed 02:24:08 PM 45.4700 -73.7530 43° Northeast 100 115 -800 Descending FlightAware ADS-B
Wed 02:24:28 PM 45.4740 -73.7480 41° Northeast 56 64  Level FlightAware ADS-B
Wed 02:25:03 PM 45.4780 -73.7420 46° Northeast 19 22  Level FlightAware ADS-B
Wed 02:25:54 PM 45.4770 -73.7400 125° Southeast 9 10  Level FlightAware ADS-B
Wed 02:26:27 PM 45.4750 -73.7420 215° Southwest 17 20  Level FlightAware ADS-B
Wed 02:26:48 PM 45.4740 -73.7440 235° Southwest 20 23  Level FlightAware ADS-B

Login

Don't have an account? Register now (free) for customized features, flight alerts, and more!